sensor_id;sensor_type;location;lat;lon;timestamp;P1;durP1;ratioP1;P2;durP2;ratioP2
68806;SDS011;55800;54.272;18.558;2023-04-08T00:01:47;32.30;;;17.92;;
68806;SDS011;55800;54.272;18.558;2023-04-08T00:04:16;27.45;;;16.65;;
68806;SDS011;55800;54.272;18.558;2023-04-08T00:06:46;36.05;;;17.67;;
68806;SDS011;55800;54.272;18.558;2023-04-08T00:09:15;24.70;;;13.75;;
68806;SDS011;55800;54.272;18.558;2023-04-08T00:11:46;29.60;;;16.33;;
68806;SDS011;55800;54.272;18.558;2023-04-08T00:14:16;29.67;;;16.35;;
68806;SDS011;55800;54.272;18.558;2023-04-08T00:16:45;31.20;;;15.35;;
68806;SDS011;55800;54.272;18.558;2023-04-08T00:19:14;29.63;;;15.48;;
68806;SDS011;55800;54.272;18.558;2023-04-08T00:21:44;28.50;;;15.18;;
68806;SDS011;55800;54.272;18.558;2023-04-08T00:24:13;33.60;;;18.65;;
68806;SDS011;55800;54.272;18.558;2023-04-08T00:26:43;32.25;;;18.45;;
68806;SDS011;55800;54.272;18.558;2023-04-08T00:29:13;35.25;;;20.23;;
68806;SDS011;55800;54.272;18.558;2023-04-08T00:31:43;30.77;;;19.38;;
68806;SDS011;55800;54.272;18.558;2023-04-08T00:34:12;40.22;;;22.33;;
68806;SDS011;55800;54.272;18.558;2023-04-08T00:36:41;36.47;;;21.15;;
68806;SDS011;55800;54.272;18.558;2023-04-08T00:39:12;36.55;;;19.58;;
68806;SDS011;55800;54.272;18.558;2023-04-08T00:41:41;34.72;;;19.38;;
68806;SDS011;55800;54.272;18.558;2023-04-08T00:44:13;32.13;;;17.33;;
68806;SDS011;55800;54.272;18.558;2023-04-08T00:46:42;31.08;;;19.25;;
68806;SDS011;55800;54.272;18.558;2023-04-08T00:49:12;34.33;;;17.75;;
68806;SDS011;55800;54.272;18.558;2023-04-08T00:54:11;31.17;;;17.27;;
68806;SDS011;55800;54.272;18.558;2023-04-08T00:56:40;34.78;;;18.15;;
68806;SDS011;55800;54.272;18.558;2023-04-08T00:59:13;31.83;;;18.80;;
68806;SDS011;55800;54.272;18.558;2023-04-08T01:01:46;36.40;;;18.58;;
68806;SDS011;55800;54.272;18.558;2023-04-08T01:06:58;29.55;;;16.10;;
68806;SDS011;55800;54.272;18.558;2023-04-08T01:09:34;30.60;;;18.50;;
68806;SDS011;55800;54.272;18.558;2023-04-08T01:12:07;37.22;;;18.95;;
68806;SDS011;55800;54.272;18.558;2023-04-08T01:14:41;31.88;;;17.33;;
68806;SDS011;55800;54.272;18.558;2023-04-08T01:17:14;33.95;;;20.80;;
68806;SDS011;55800;54.272;18.558;2023-04-08T01:19:46;38.30;;;22.45;;
68806;SDS011;55800;54.272;18.558;2023-04-08T01:22:21;39.25;;;20.80;;
68806;SDS011;55800;54.272;18.558;2023-04-08T01:24:56;37.17;;;19.52;;
68806;SDS011;55800;54.272;18.558;2023-04-08T01:27:31;38.97;;;19.70;;
68806;SDS011;55800;54.272;18.558;2023-04-08T01:30:02;28.10;;;18.08;;
68806;SDS011;55800;54.272;18.558;2023-04-08T01:32:35;30.55;;;19.65;;
68806;SDS011;55800;54.272;18.558;2023-04-08T01:35:05;37.47;;;19.70;;
68806;SDS011;55800;54.272;18.558;2023-04-08T01:37:36;30.15;;;17.70;;
68806;SDS011;55800;54.272;18.558;2023-04-08T01:40:08;32.60;;;17.83;;
68806;SDS011;55800;54.272;18.558;2023-04-08T01:42:41;35.75;;;19.30;;
68806;SDS011;55800;54.272;18.558;2023-04-08T01:45:11;32.55;;;19.25;;
68806;SDS011;55800;54.272;18.558;2023-04-08T01:47:42;27.70;;;18.52;;
68806;SDS011;55800;54.272;18.558;2023-04-08T01:50:14;35.28;;;18.83;;
68806;SDS011;55800;54.272;18.558;2023-04-08T01:52:47;39.35;;;19.17;;
68806;SDS011;55800;54.272;18.558;2023-04-08T01:55:19;37.60;;;19.10;;
68806;SDS011;55800;54.272;18.558;2023-04-08T01:57:51;28.33;;;17.80;;
68806;SDS011;55800;54.272;18.558;2023-04-08T02:00:24;39.55;;;18.65;;
68806;SDS011;55800;54.272;18.558;2023-04-08T02:02:56;29.80;;;17.33;;
68806;SDS011;55800;54.272;18.558;2023-04-08T02:05:27;30.83;;;18.67;;
68806;SDS011;55800;54.272;18.558;2023-04-08T02:07:57;31.65;;;17.23;;
68806;SDS011;55800;54.272;18.558;2023-04-08T02:10:26;33.95;;;19.50;;
68806;SDS011;55800;54.272;18.558;2023-04-08T02:12:57;33.05;;;19.70;;
68806;SDS011;55800;54.272;18.558;2023-04-08T02:15:29;32.28;;;19.27;;
68806;SDS011;55800;54.272;18.558;2023-04-08T02:18:04;29.15;;;16.55;;
68806;SDS011;55800;54.272;18.558;2023-04-08T02:20:41;29.80;;;16.98;;
68806;SDS011;55800;54.272;18.558;2023-04-08T02:23:16;27.50;;;16.30;;
68806;SDS011;55800;54.272;18.558;2023-04-08T02:25:48;28.83;;;17.20;;
68806;SDS011;55800;54.272;18.558;2023-04-08T02:28:21;33.25;;;19.38;;
68806;SDS011;55800;54.272;18.558;2023-04-08T02:33:49;34.92;;;19.08;;
68806;SDS011;55800;54.272;18.558;2023-04-08T02:36:19;39.25;;;19.42;;
68806;SDS011;55800;54.272;18.558;2023-04-08T02:38:50;34.58;;;20.00;;
68806;SDS011;55800;54.272;18.558;2023-04-08T02:41:20;37.15;;;20.52;;
68806;SDS011;55800;54.272;18.558;2023-04-08T02:43:51;35.28;;;20.45;;
68806;SDS011;55800;54.272;18.558;2023-04-08T02:46:21;41.42;;;20.80;;
68806;SDS011;55800;54.272;18.558;2023-04-08T02:51:20;32.22;;;18.10;;
68806;SDS011;55800;54.272;18.558;2023-04-08T02:53:49;33.45;;;21.08;;
68806;SDS011;55800;54.272;18.558;2023-04-08T02:56:18;29.48;;;18.17;;
68806;SDS011;55800;54.272;18.558;2023-04-08T02:58:48;36.88;;;21.90;;
68806;SDS011;55800;54.272;18.558;2023-04-08T03:01:19;38.30;;;22.23;;
68806;SDS011;55800;54.272;18.558;2023-04-08T03:03:48;36.03;;;21.63;;
68806;SDS011;55800;54.272;18.558;2023-04-08T03:06:18;34.53;;;19.23;;
68806;SDS011;55800;54.272;18.558;2023-04-08T03:08:47;32.65;;;18.85;;
68806;SDS011;55800;54.272;18.558;2023-04-08T03:11:17;34.35;;;19.75;;
68806;SDS011;55800;54.272;18.558;2023-04-08T03:13:47;33.47;;;19.40;;
68806;SDS011;55800;54.272;18.558;2023-04-08T03:16:17;35.33;;;20.42;;
68806;SDS011;55800;54.272;18.558;2023-04-08T03:18:48;31.83;;;19.00;;
68806;SDS011;55800;54.272;18.558;2023-04-08T03:21:18;34.08;;;19.05;;
68806;SDS011;55800;54.272;18.558;2023-04-08T03:23:47;35.40;;;19.05;;
68806;SDS011;55800;54.272;18.558;2023-04-08T03:26:16;34.00;;;18.88;;
68806;SDS011;55800;54.272;18.558;2023-04-08T03:28:47;32.72;;;19.77;;
68806;SDS011;55800;54.272;18.558;2023-04-08T03:33:48;31.65;;;19.10;;
68806;SDS011;55800;54.272;18.558;2023-04-08T03:36:17;35.60;;;19.73;;
68806;SDS011;55800;54.272;18.558;2023-04-08T03:38:46;34.00;;;17.38;;
68806;SDS011;55800;54.272;18.558;2023-04-08T03:41:16;36.03;;;19.52;;
68806;SDS011;55800;54.272;18.558;2023-04-08T03:43:45;34.47;;;19.67;;
68806;SDS011;55800;54.272;18.558;2023-04-08T03:46:15;34.90;;;18.58;;
68806;SDS011;55800;54.272;18.558;2023-04-08T03:48:45;26.38;;;17.23;;
68806;SDS011;55800;54.272;18.558;2023-04-08T03:51:15;32.80;;;19.65;;
68806;SDS011;55800;54.272;18.558;2023-04-08T03:53:45;31.85;;;19.17;;
68806;SDS011;55800;54.272;18.558;2023-04-08T03:56:15;35.47;;;19.20;;
68806;SDS011;55800;54.272;18.558;2023-04-08T03:58:44;30.25;;;17.63;;
68806;SDS011;55800;54.272;18.558;2023-04-08T04:01:13;32.50;;;18.08;;
68806;SDS011;55800;54.272;18.558;2023-04-08T04:03:44;35.30;;;19.40;;
68806;SDS011;55800;54.272;18.558;2023-04-08T04:06:14;32.95;;;19.73;;
68806;SDS011;55800;54.272;18.558;2023-04-08T04:08:44;29.30;;;16.75;;
68806;SDS011;55800;54.272;18.558;2023-04-08T04:11:14;35.60;;;20.17;;
68806;SDS011;55800;54.272;18.558;2023-04-08T04:16:12;32.03;;;17.88;;
68806;SDS011;55800;54.272;18.558;2023-04-08T04:18:42;34.95;;;18.65;;
68806;SDS011;55800;54.272;18.558;2023-04-08T04:21:12;37.70;;;19.67;;
68806;SDS011;55800;54.272;18.558;2023-04-08T04:23:42;90.90;;;21.08;;
68806;SDS011;55800;54.272;18.558;2023-04-08T04:26:11;82.07;;;22.90;;
68806;SDS011;55800;54.272;18.558;2023-04-08T04:28:41;93.90;;;23.58;;
68806;SDS011;55800;54.272;18.558;2023-04-08T04:31:16;72.97;;;22.02;;
68806;SDS011;55800;54.272;18.558;2023-04-08T04:33:47;94.72;;;24.35;;
68806;SDS011;55800;54.272;18.558;2023-04-08T04:36:18;139.07;;;27.95;;
68806;SDS011;55800;54.272;18.558;2023-04-08T04:38:48;115.95;;;24.08;;
68806;SDS011;55800;54.272;18.558;2023-04-08T04:41:18;170.57;;;26.55;;
68806;SDS011;55800;54.272;18.558;2023-04-08T04:46:17;50.45;;;18.17;;
68806;SDS011;55800;54.272;18.558;2023-04-08T04:48:46;55.17;;;20.30;;
68806;SDS011;55800;54.272;18.558;2023-04-08T04:51:18;113.30;;;21.30;;
68806;SDS011;55800;54.272;18.558;2023-04-08T04:53:48;132.65;;;25.15;;
68806;SDS011;55800;54.272;18.558;2023-04-08T04:56:17;105.07;;;21.63;;
68806;SDS011;55800;54.272;18.558;2023-04-08T05:01:16;88.18;;;21.75;;
68806;SDS011;55800;54.272;18.558;2023-04-08T05:03:46;74.20;;;21.27;;
68806;SDS011;55800;54.272;18.558;2023-04-08T05:06:15;54.28;;;19.38;;
68806;SDS011;55800;54.272;18.558;2023-04-08T05:08:45;69.97;;;20.42;;
68806;SDS011;55800;54.272;18.558;2023-04-08T05:11:15;78.65;;;22.83;;
68806;SDS011;55800;54.272;18.558;2023-04-08T05:13:45;93.22;;;24.70;;
68806;SDS011;55800;54.272;18.558;2023-04-08T05:16:14;116.47;;;21.88;;
68806;SDS011;55800;54.272;18.558;2023-04-08T05:18:44;73.22;;;19.75;;
68806;SDS011;55800;54.272;18.558;2023-04-08T05:21:13;100.20;;;18.80;;
68806;SDS011;55800;54.272;18.558;2023-04-08T05:23:43;31.25;;;15.13;;
68806;SDS011;55800;54.272;18.558;2023-04-08T05:26:13;53.97;;;17.83;;
68806;SDS011;55800;54.272;18.558;2023-04-08T05:28:46;78.63;;;19.33;;
68806;SDS011;55800;54.272;18.558;2023-04-08T05:31:15;40.45;;;16.35;;
68806;SDS011;55800;54.272;18.558;2023-04-08T05:33:45;37.03;;;16.48;;
68806;SDS011;55800;54.272;18.558;2023-04-08T05:36:14;43.25;;;15.45;;
68806;SDS011;55800;54.272;18.558;2023-04-08T05:38:45;31.67;;;15.68;;
68806;SDS011;55800;54.272;18.558;2023-04-08T05:41:15;32.28;;;15.88;;
68806;SDS011;55800;54.272;18.558;2023-04-08T05:43:44;30.60;;;16.02;;
68806;SDS011;55800;54.272;18.558;2023-04-08T05:46:13;40.72;;;15.05;;
68806;SDS011;55800;54.272;18.558;2023-04-08T05:51:12;25.88;;;14.93;;
68806;SDS011;55800;54.272;18.558;2023-04-08T05:53:44;24.83;;;15.50;;
68806;SDS011;55800;54.272;18.558;2023-04-08T05:56:14;26.25;;;16.08;;
68806;SDS011;55800;54.272;18.558;2023-04-08T05:58:44;25.27;;;16.90;;
68806;SDS011;55800;54.272;18.558;2023-04-08T06:01:14;26.70;;;17.50;;
68806;SDS011;55800;54.272;18.558;2023-04-08T06:03:43;27.35;;;16.52;;
68806;SDS011;55800;54.272;18.558;2023-04-08T06:06:13;28.10;;;15.88;;
68806;SDS011;55800;54.272;18.558;2023-04-08T06:08:42;31.60;;;17.73;;
68806;SDS011;55800;54.272;18.558;2023-04-08T06:11:13;29.15;;;16.95;;
68806;SDS011;55800;54.272;18.558;2023-04-08T06:13:42;30.58;;;19.92;;
68806;SDS011;55800;54.272;18.558;2023-04-08T06:16:12;32.17;;;21.02;;
68806;SDS011;55800;54.272;18.558;2023-04-08T06:18:46;34.30;;;20.50;;
68806;SDS011;55800;54.272;18.558;2023-04-08T06:21:16;32.25;;;19.67;;
68806;SDS011;55800;54.272;18.558;2023-04-08T06:23:45;39.20;;;23.33;;
68806;SDS011;55800;54.272;18.558;2023-04-08T06:26:16;34.85;;;20.90;;
68806;SDS011;55800;54.272;18.558;2023-04-08T06:28:45;31.67;;;19.58;;
68806;SDS011;55800;54.272;18.558;2023-04-08T06:31:15;35.42;;;21.55;;
68806;SDS011;55800;54.272;18.558;2023-04-08T06:33:44;34.05;;;23.15;;
68806;SDS011;55800;54.272;18.558;2023-04-08T06:36:14;35.83;;;23.80;;
68806;SDS011;55800;54.272;18.558;2023-04-08T06:38:43;40.85;;;22.92;;
68806;SDS011;55800;54.272;18.558;2023-04-08T06:41:13;38.58;;;25.25;;
68806;SDS011;55800;54.272;18.558;2023-04-08T06:43:43;40.47;;;25.92;;
68806;SDS011;55800;54.272;18.558;2023-04-08T06:46:13;52.47;;;27.65;;
68806;SDS011;55800;54.272;18.558;2023-04-08T06:48:42;50.67;;;26.55;;
68806;SDS011;55800;54.272;18.558;2023-04-08T06:51:11;44.35;;;26.05;;
68806;SDS011;55800;54.272;18.558;2023-04-08T06:53:41;48.70;;;25.10;;
68806;SDS011;55800;54.272;18.558;2023-04-08T06:56:10;64.65;;;26.77;;
68806;SDS011;55800;54.272;18.558;2023-04-08T06:58:41;52.90;;;28.23;;
68806;SDS011;55800;54.272;18.558;2023-04-08T07:01:12;50.38;;;25.30;;
68806;SDS011;55800;54.272;18.558;2023-04-08T07:03:42;57.13;;;28.70;;
68806;SDS011;55800;54.272;18.558;2023-04-08T07:06:11;46.75;;;27.25;;
68806;SDS011;55800;54.272;18.558;2023-04-08T07:08:41;54.60;;;28.55;;
68806;SDS011;55800;54.272;18.558;2023-04-08T07:11:11;51.15;;;27.95;;
68806;SDS011;55800;54.272;18.558;2023-04-08T07:13:40;56.78;;;26.80;;
68806;SDS011;55800;54.272;18.558;2023-04-08T07:16:12;44.92;;;25.52;;
68806;SDS011;55800;54.272;18.558;2023-04-08T07:18:41;45.70;;;24.27;;
68806;SDS011;55800;54.272;18.558;2023-04-08T07:21:11;49.60;;;27.27;;
68806;SDS011;55800;54.272;18.558;2023-04-08T07:23:41;49.38;;;26.77;;
68806;SDS011;55800;54.272;18.558;2023-04-08T07:26:10;52.72;;;25.65;;
68806;SDS011;55800;54.272;18.558;2023-04-08T07:31:11;45.15;;;24.15;;
68806;SDS011;55800;54.272;18.558;2023-04-08T07:33:42;44.42;;;25.70;;
68806;SDS011;55800;54.272;18.558;2023-04-08T07:36:12;48.85;;;26.95;;
68806;SDS011;55800;54.272;18.558;2023-04-08T07:38:44;44.47;;;25.30;;
68806;SDS011;55800;54.272;18.558;2023-04-08T07:43:42;43.17;;;24.02;;
68806;SDS011;55800;54.272;18.558;2023-04-08T07:46:13;41.58;;;21.70;;
68806;SDS011;55800;54.272;18.558;2023-04-08T07:48:43;42.88;;;24.55;;
68806;SDS011;55800;54.272;18.558;2023-04-08T07:53:41;34.17;;;21.17;;
68806;SDS011;55800;54.272;18.558;2023-04-08T07:58:41;42.35;;;24.85;;
68806;SDS011;55800;54.272;18.558;2023-04-08T08:01:16;43.45;;;23.83;;
68806;SDS011;55800;54.272;18.558;2023-04-08T08:03:47;41.05;;;23.85;;
68806;SDS011;55800;54.272;18.558;2023-04-08T08:06:18;36.63;;;20.55;;
68806;SDS011;55800;54.272;18.558;2023-04-08T08:08:47;33.90;;;19.70;;
68806;SDS011;55800;54.272;18.558;2023-04-08T08:11:17;40.25;;;22.33;;
68806;SDS011;55800;54.272;18.558;2023-04-08T08:13:47;33.80;;;20.38;;
68806;SDS011;55800;54.272;18.558;2023-04-08T08:16:18;36.88;;;20.65;;
68806;SDS011;55800;54.272;18.558;2023-04-08T08:18:47;31.83;;;20.13;;
68806;SDS011;55800;54.272;18.558;2023-04-08T08:21:17;28.63;;;17.75;;
68806;SDS011;55800;54.272;18.558;2023-04-08T08:23:46;36.47;;;21.08;;
68806;SDS011;55800;54.272;18.558;2023-04-08T08:26:16;38.17;;;17.45;;
68806;SDS011;55800;54.272;18.558;2023-04-08T08:28:45;35.08;;;18.77;;
68806;SDS011;55800;54.272;18.558;2023-04-08T08:31:14;35.65;;;21.30;;
68806;SDS011;55800;54.272;18.558;2023-04-08T08:33:45;33.35;;;19.35;;
68806;SDS011;55800;54.272;18.558;2023-04-08T08:36:15;36.55;;;19.98;;
68806;SDS011;55800;54.272;18.558;2023-04-08T08:41:14;35.88;;;20.10;;
68806;SDS011;55800;54.272;18.558;2023-04-08T08:43:44;34.90;;;19.92;;
68806;SDS011;55800;54.272;18.558;2023-04-08T08:46:15;28.05;;;17.30;;
68806;SDS011;55800;54.272;18.558;2023-04-08T08:48:47;34.83;;;19.23;;
68806;SDS011;55800;54.272;18.558;2023-04-08T08:51:16;34.78;;;19.45;;
68806;SDS011;55800;54.272;18.558;2023-04-08T08:53:46;31.17;;;19.27;;
68806;SDS011;55800;54.272;18.558;2023-04-08T08:56:15;34.72;;;19.58;;
68806;SDS011;55800;54.272;18.558;2023-04-08T09:01:33;31.50;;;18.60;;
68806;SDS011;55800;54.272;18.558;2023-04-08T09:04:13;30.45;;;18.73;;
68806;SDS011;55800;54.272;18.558;2023-04-08T09:06:45;32.83;;;17.48;;
68806;SDS011;55800;54.272;18.558;2023-04-08T09:09:16;31.15;;;18.92;;
68806;SDS011;55800;54.272;18.558;2023-04-08T09:11:45;36.47;;;19.02;;
68806;SDS011;55800;54.272;18.558;2023-04-08T09:14:19;25.17;;;16.25;;
68806;SDS011;55800;54.272;18.558;2023-04-08T09:16:49;30.88;;;17.95;;
68806;SDS011;55800;54.272;18.558;2023-04-08T09:19:20;27.60;;;15.30;;
68806;SDS011;55800;54.272;18.558;2023-04-08T09:22:06;27.75;;;15.20;;
68806;SDS011;55800;54.272;18.558;2023-04-08T09:24:36;23.05;;;15.10;;
68806;SDS011;55800;54.272;18.558;2023-04-08T09:27:06;24.17;;;15.65;;
68806;SDS011;55800;54.272;18.558;2023-04-08T09:29:36;22.88;;;13.32;;
68806;SDS011;55800;54.272;18.558;2023-04-08T09:32:06;22.50;;;14.82;;
68806;SDS011;55800;54.272;18.558;2023-04-08T09:34:36;20.77;;;13.27;;
68806;SDS011;55800;54.272;18.558;2023-04-08T09:37:06;27.50;;;14.35;;
68806;SDS011;55800;54.272;18.558;2023-04-08T09:39:35;23.40;;;11.90;;
68806;SDS011;55800;54.272;18.558;2023-04-08T09:44:36;19.05;;;12.15;;
68806;SDS011;55800;54.272;18.558;2023-04-08T09:47:09;20.02;;;11.73;;
68806;SDS011;55800;54.272;18.558;2023-04-08T09:49:48;14.90;;;8.73;;
68806;SDS011;55800;54.272;18.558;2023-04-08T09:52:32;19.58;;;11.23;;
68806;SDS011;55800;54.272;18.558;2023-04-08T09:55:07;17.50;;;10.43;;
68806;SDS011;55800;54.272;18.558;2023-04-08T09:57:40;18.42;;;10.82;;
68806;SDS011;55800;54.272;18.558;2023-04-08T10:00:12;18.13;;;12.13;;
68806;SDS011;55800;54.272;18.558;2023-04-08T10:02:44;21.52;;;13.27;;
68806;SDS011;55800;54.272;18.558;2023-04-08T10:05:21;19.95;;;10.90;;
68806;SDS011;55800;54.272;18.558;2023-04-08T10:07:53;21.08;;;12.65;;
68806;SDS011;55800;54.272;18.558;2023-04-08T10:10:24;21.73;;;11.55;;
68806;SDS011;55800;54.272;18.558;2023-04-08T10:12:55;16.30;;;10.52;;
68806;SDS011;55800;54.272;18.558;2023-04-08T10:17:55;20.98;;;11.68;;
68806;SDS011;55800;54.272;18.558;2023-04-08T10:20:42;20.20;;;12.00;;
68806;SDS011;55800;54.272;18.558;2023-04-08T10:23:13;21.63;;;10.32;;
68806;SDS011;55800;54.272;18.558;2023-04-08T10:25:43;19.73;;;11.40;;
68806;SDS011;55800;54.272;18.558;2023-04-08T10:28:23;17.73;;;12.63;;
68806;SDS011;55800;54.272;18.558;2023-04-08T10:30:53;16.80;;;11.25;;
68806;SDS011;55800;54.272;18.558;2023-04-08T10:33:30;17.88;;;10.18;;
68806;SDS011;55800;54.272;18.558;2023-04-08T10:36:10;21.05;;;10.95;;
68806;SDS011;55800;54.272;18.558;2023-04-08T10:38:41;16.95;;;10.45;;
68806;SDS011;55800;54.272;18.558;2023-04-08T10:41:13;17.05;;;10.43;;
68806;SDS011;55800;54.272;18.558;2023-04-08T10:43:51;16.92;;;10.88;;
68806;SDS011;55800;54.272;18.558;2023-04-08T10:46:20;17.30;;;10.25;;
68806;SDS011;55800;54.272;18.558;2023-04-08T10:48:58;18.08;;;10.13;;
68806;SDS011;55800;54.272;18.558;2023-04-08T10:51:30;17.20;;;10.23;;
68806;SDS011;55800;54.272;18.558;2023-04-08T10:54:04;18.67;;;10.57;;
68806;SDS011;55800;54.272;18.558;2023-04-08T10:56:34;16.75;;;11.05;;
68806;SDS011;55800;54.272;18.558;2023-04-08T10:59:04;16.52;;;10.38;;
68806;SDS011;55800;54.272;18.558;2023-04-08T11:01:37;18.80;;;10.45;;
68806;SDS011;55800;54.272;18.558;2023-04-08T11:04:11;19.15;;;12.15;;
68806;SDS011;55800;54.272;18.558;2023-04-08T11:06:44;15.52;;;10.65;;
68806;SDS011;55800;54.272;18.558;2023-04-08T11:09:14;17.25;;;9.45;;
68806;SDS011;55800;54.272;18.558;2023-04-08T11:11:44;16.20;;;9.68;;
68806;SDS011;55800;54.272;18.558;2023-04-08T11:14:14;14.27;;;9.00;;
68806;SDS011;55800;54.272;18.558;2023-04-08T11:16:47;17.90;;;10.88;;
68806;SDS011;55800;54.272;18.558;2023-04-08T11:19:17;16.65;;;9.20;;
68806;SDS011;55800;54.272;18.558;2023-04-08T11:21:49;19.75;;;11.27;;
68806;SDS011;55800;54.272;18.558;2023-04-08T11:24:20;20.67;;;11.65;;
68806;SDS011;55800;54.272;18.558;2023-04-08T11:26:49;15.48;;;9.23;;
68806;SDS011;55800;54.272;18.558;2023-04-08T11:31:48;15.68;;;10.57;;
68806;SDS011;55800;54.272;18.558;2023-04-08T11:34:21;16.23;;;10.30;;
68806;SDS011;55800;54.272;18.558;2023-04-08T11:36:52;18.25;;;11.77;;
68806;SDS011;55800;54.272;18.558;2023-04-08T11:39:24;19.83;;;11.75;;
68806;SDS011;55800;54.272;18.558;2023-04-08T11:41:53;18.67;;;11.48;;
68806;SDS011;55800;54.272;18.558;2023-04-08T11:44:30;19.25;;;11.07;;
68806;SDS011;55800;54.272;18.558;2023-04-08T11:46:59;17.42;;;10.82;;
68806;SDS011;55800;54.272;18.558;2023-04-08T11:49:42;17.65;;;11.40;;
68806;SDS011;55800;54.272;18.558;2023-04-08T11:52:13;17.67;;;12.27;;
68806;SDS011;55800;54.272;18.558;2023-04-08T11:54:43;18.05;;;12.45;;
68806;SDS011;55800;54.272;18.558;2023-04-08T11:57:12;17.08;;;12.45;;
68806;SDS011;55800;54.272;18.558;2023-04-08T11:59:43;21.33;;;12.35;;
68806;SDS011;55800;54.272;18.558;2023-04-08T12:02:12;15.88;;;11.00;;
68806;SDS011;55800;54.272;18.558;2023-04-08T12:04:43;16.88;;;10.73;;
68806;SDS011;55800;54.272;18.558;2023-04-08T12:07:14;18.60;;;12.55;;
68806;SDS011;55800;54.272;18.558;2023-04-08T12:09:44;16.95;;;11.02;;
68806;SDS011;55800;54.272;18.558;2023-04-08T12:12:13;17.02;;;11.18;;
68806;SDS011;55800;54.272;18.558;2023-04-08T12:14:43;20.48;;;11.90;;
68806;SDS011;55800;54.272;18.558;2023-04-08T12:17:12;16.15;;;10.80;;
68806;SDS011;55800;54.272;18.558;2023-04-08T12:19:41;17.02;;;12.25;;
68806;SDS011;55800;54.272;18.558;2023-04-08T12:22:10;16.60;;;11.05;;
68806;SDS011;55800;54.272;18.558;2023-04-08T12:24:41;19.05;;;11.02;;
68806;SDS011;55800;54.272;18.558;2023-04-08T12:27:11;15.07;;;9.48;;
68806;SDS011;55800;54.272;18.558;2023-04-08T12:29:40;14.82;;;10.85;;
68806;SDS011;55800;54.272;18.558;2023-04-08T12:32:12;15.50;;;9.63;;
68806;SDS011;55800;54.272;18.558;2023-04-08T12:34:41;16.08;;;10.13;;
68806;SDS011;55800;54.272;18.558;2023-04-08T12:42:10;13.90;;;9.27;;
68806;SDS011;55800;54.272;18.558;2023-04-08T12:44:40;14.13;;;10.27;;
68806;SDS011;55800;54.272;18.558;2023-04-08T12:47:09;14.88;;;8.40;;
68806;SDS011;55800;54.272;18.558;2023-04-08T12:49:39;17.05;;;10.02;;
68806;SDS011;55800;54.272;18.558;2023-04-08T12:52:15;15.68;;;9.00;;
68806;SDS011;55800;54.272;18.558;2023-04-08T12:54:47;13.50;;;9.07;;
68806;SDS011;55800;54.272;18.558;2023-04-08T12:57:16;14.13;;;8.02;;
68806;SDS011;55800;54.272;18.558;2023-04-08T12:59:45;12.52;;;8.15;;
68806;SDS011;55800;54.272;18.558;2023-04-08T13:04:44;13.70;;;8.73;;
68806;SDS011;55800;54.272;18.558;2023-04-08T13:07:15;15.55;;;8.77;;
68806;SDS011;55800;54.272;18.558;2023-04-08T13:09:46;12.15;;;8.05;;
68806;SDS011;55800;54.272;18.558;2023-04-08T13:12:15;15.43;;;8.15;;
68806;SDS011;55800;54.272;18.558;2023-04-08T13:14:45;15.07;;;8.23;;
68806;SDS011;55800;54.272;18.558;2023-04-08T13:17:14;11.65;;;8.30;;
68806;SDS011;55800;54.272;18.558;2023-04-08T13:19:43;13.77;;;8.43;;
68806;SDS011;55800;54.272;18.558;2023-04-08T13:22:13;14.88;;;8.95;;
68806;SDS011;55800;54.272;18.558;2023-04-08T13:24:42;14.77;;;7.90;;
68806;SDS011;55800;54.272;18.558;2023-04-08T13:27:13;15.07;;;9.60;;
68806;SDS011;55800;54.272;18.558;2023-04-08T13:29:43;11.07;;;7.35;;
68806;SDS011;55800;54.272;18.558;2023-04-08T13:32:12;14.32;;;8.43;;
68806;SDS011;55800;54.272;18.558;2023-04-08T13:34:42;11.45;;;6.70;;
68806;SDS011;55800;54.272;18.558;2023-04-08T13:39:40;10.52;;;6.68;;
68806;SDS011;55800;54.272;18.558;2023-04-08T13:47:09;11.40;;;6.15;;
68806;SDS011;55800;54.272;18.558;2023-04-08T13:49:39;11.68;;;5.88;;
68806;SDS011;55800;54.272;18.558;2023-04-08T13:57:07;15.35;;;10.00;;
68806;SDS011;55800;54.272;18.558;2023-04-08T13:59:37;10.70;;;7.30;;
68806;SDS011;55800;54.272;18.558;2023-04-08T14:02:11;9.13;;;5.82;;
68806;SDS011;55800;54.272;18.558;2023-04-08T14:04:40;12.93;;;7.20;;
68806;SDS011;55800;54.272;18.558;2023-04-08T14:07:11;9.93;;;5.97;;
68806;SDS011;55800;54.272;18.558;2023-04-08T14:09:41;12.02;;;6.32;;
68806;SDS011;55800;54.272;18.558;2023-04-08T14:12:10;14.95;;;9.75;;
68806;SDS011;55800;54.272;18.558;2023-04-08T14:14:40;20.35;;;13.88;;
68806;SDS011;55800;54.272;18.558;2023-04-08T14:17:10;23.02;;;14.98;;
68806;SDS011;55800;54.272;18.558;2023-04-08T14:19:41;19.70;;;13.35;;
68806;SDS011;55800;54.272;18.558;2023-04-08T14:22:10;21.08;;;13.80;;
68806;SDS011;55800;54.272;18.558;2023-04-08T14:24:40;22.85;;;15.95;;
68806;SDS011;55800;54.272;18.558;2023-04-08T14:27:10;31.33;;;17.60;;
68806;SDS011;55800;54.272;18.558;2023-04-08T14:29:39;27.52;;;18.33;;
68806;SDS011;55800;54.272;18.558;2023-04-08T14:32:09;32.00;;;18.45;;
68806;SDS011;55800;54.272;18.558;2023-04-08T14:34:40;27.90;;;17.42;;
68806;SDS011;55800;54.272;18.558;2023-04-08T14:37:09;25.73;;;16.65;;
68806;SDS011;55800;54.272;18.558;2023-04-08T14:39:38;31.52;;;18.13;;
68806;SDS011;55800;54.272;18.558;2023-04-08T14:42:07;29.00;;;18.20;;
68806;SDS011;55800;54.272;18.558;2023-04-08T14:44:37;25.38;;;17.15;;
68806;SDS011;55800;54.272;18.558;2023-04-08T14:47:07;31.58;;;20.45;;
68806;SDS011;55800;54.272;18.558;2023-04-08T14:49:37;27.92;;;17.15;;
68806;SDS011;55800;54.272;18.558;2023-04-08T14:52:07;25.15;;;19.60;;
68806;SDS011;55800;54.272;18.558;2023-04-08T14:54:36;28.85;;;17.23;;
68806;SDS011;55800;54.272;18.558;2023-04-08T14:57:05;28.98;;;17.15;;
68806;SDS011;55800;54.272;18.558;2023-04-08T14:59:35;26.58;;;17.70;;
68806;SDS011;55800;54.272;18.558;2023-04-08T15:02:04;26.25;;;16.52;;
68806;SDS011;55800;54.272;18.558;2023-04-08T15:04:34;25.45;;;16.38;;
68806;SDS011;55800;54.272;18.558;2023-04-08T15:07:05;28.33;;;16.90;;
68806;SDS011;55800;54.272;18.558;2023-04-08T15:09:35;23.02;;;15.88;;
68806;SDS011;55800;54.272;18.558;2023-04-08T15:12:04;23.45;;;15.75;;
68806;SDS011;55800;54.272;18.558;2023-04-08T15:14:34;23.38;;;16.35;;
68806;SDS011;55800;54.272;18.558;2023-04-08T15:17:05;28.08;;;16.02;;
68806;SDS011;55800;54.272;18.558;2023-04-08T15:19:36;27.73;;;17.20;;
68806;SDS011;55800;54.272;18.558;2023-04-08T15:22:06;28.52;;;16.38;;
68806;SDS011;55800;54.272;18.558;2023-04-08T15:24:36;28.95;;;17.83;;
68806;SDS011;55800;54.272;18.558;2023-04-08T15:27:05;25.42;;;16.35;;
68806;SDS011;55800;54.272;18.558;2023-04-08T15:29:35;27.20;;;16.23;;
68806;SDS011;55800;54.272;18.558;2023-04-08T15:32:04;24.58;;;14.77;;
68806;SDS011;55800;54.272;18.558;2023-04-08T15:34:33;25.65;;;15.75;;
68806;SDS011;55800;54.272;18.558;2023-04-08T15:37:03;27.08;;;15.52;;